Time;durP1;ratioP1;P1;durP2;ratioP2;P2;SDS_P1;SDS_P2;PMS_P1;PMS_P2;Temp;Humidity;BMP_temperature;BMP_pressure;BME280_temperature;BME280_humidity;BME280_pressure;Samples;Min_cycle;Max_cycle;Signal;HPM_P1;HPM_P2
2021/09/28 00:03:55;;;;;;;11.95;5.40;;;;;;;11.41;93.88;99347.45;4161828;85;21406;-83
2021/09/28 00:09:57;;;;;;;12.10;5.22;;;;;;;11.30;93.79;99352.00;4158892;85;21088;-83
2021/09/28 00:15:59;;;;;;;11.73;5.53;;;;;;;11.25;94.09;99359.16;4155452;85;21614;-83
2021/09/28 00:22:00;;;;;;;11.75;5.08;;;;;;;11.08;93.71;99353.66;4146516;85;21108;-83
2021/09/28 00:28:02;;;;;;;11.05;5.35;;;;;;;10.94;93.88;99358.35;4173190;83;21089;-83
2021/09/28 00:34:03;;;;;;;12.00;5.08;;;;;;;10.87;94.47;99358.80;4165963;84;21061;-83
2021/09/28 00:40:06;;;;;;;14.25;5.42;;;;;;;10.90;94.60;99360.23;4125688;85;21105;-83
2021/09/28 00:46:09;;;;;;;11.22;5.37;;;;;;;11.00;95.37;99360.98;4130298;85;21073;-83
2021/09/28 00:52:12;;;;;;;11.68;5.45;;;;;;;11.06;94.97;99360.08;4129245;85;21578;-82
2021/09/28 00:58:16;;;;;;;11.70;5.42;;;;;;;10.96;94.51;99352.50;4136670;85;21068;-83
2021/09/28 01:04:17;;;;;;;10.93;4.58;;;;;;;10.90;94.38;99356.13;4144983;84;21074;-83
2021/09/28 01:10:19;;;;;;;12.55;5.50;;;;;;;10.83;94.85;99362.08;4123838;85;21078;-84
2021/09/28 01:16:21;;;;;;;9.78;4.58;;;;;;;10.78;94.56;99365.92;4122846;83;21058;-83
2021/09/28 01:22:23;;;;;;;9.73;4.58;;;;;;;10.71;94.38;99364.42;4134374;85;21069;-83
2021/09/28 01:28:26;;;;;;;14.25;5.22;;;;;;;10.46;94.16;99370.66;4136890;84;21106;-83
2021/09/28 01:34:27;;;;;;;10.95;5.10;;;;;;;10.37;94.77;99368.71;4122203;84;21116;-82
2021/09/28 01:40:28;;;;;;;8.68;4.45;;;;;;;10.32;94.69;99369.80;4146082;84;21049;-82
2021/09/28 01:46:29;;;;;;;7.78;4.35;;;;;;;10.26;94.77;99373.20;4150821;85;21903;-82
2021/09/28 01:52:36;;;;;;;11.38;5.30;;;;;;;10.22;94.75;99380.00;4150299;84;21045;-82
2021/09/28 01:58:39;;;;;;;10.43;4.70;;;;;;;10.15;94.65;99383.19;4146710;83;21684;-82
2021/09/28 02:04:40;;;;;;;10.15;4.62;;;;;;;10.08;94.74;99386.58;4152227;83;21053;-82
2021/09/28 02:10:41;;;;;;;11.28;4.70;;;;;;;10.02;94.85;99392.66;4156195;85;21585;-82
2021/09/28 02:16:44;;;;;;;7.17;4.85;;;;;;;10.07;94.97;99384.97;4169326;83;21037;-82
2021/09/28 02:22:46;;;;;;;11.12;5.28;;;;;;;9.90;94.76;99396.33;4143861;85;21125;-82
2021/09/28 02:28:49;;;;;;;6.53;4.00;;;;;;;9.77;94.47;99392.75;4145259;84;21049;-82
2021/09/28 02:34:51;;;;;;;12.03;4.87;;;;;;;9.70;95.37;99404.88;4155213;83;21108;-82
2021/09/28 02:40:56;;;;;;;13.38;4.78;;;;;;;9.71;94.84;99396.92;4090562;85;21080;-82
2021/09/28 02:46:57;;;;;;;10.30;4.95;;;;;;;9.57;94.61;99393.89;4101506;85;21173;-82
2021/09/28 02:52:59;;;;;;;9.65;4.85;;;;;;;9.48;94.80;99397.61;4090758;85;21041;-82
2021/09/28 02:59:00;;;;;;;7.90;5.17;;;;;;;9.37;94.67;99393.05;4086606;85;21101;-82
2021/09/28 03:05:02;;;;;;;9.10;4.72;;;;;;;9.29;94.86;99392.11;4080320;85;21145;-82
2021/09/28 03:11:05;;;;;;;8.30;5.03;;;;;;;9.24;94.85;99401.14;4095282;85;21051;-82
2021/09/28 03:17:06;;;;;;;8.25;5.12;;;;;;;9.17;94.82;99403.17;4076045;85;21120;-82
2021/09/28 03:23:08;;;;;;;8.60;4.90;;;;;;;9.09;95.00;99408.24;4087768;85;21653;-83
2021/09/28 03:29:09;;;;;;;9.28;5.28;;;;;;;9.04;94.96;99409.88;4101141;85;21101;-81
2021/09/28 03:35:11;;;;;;;8.23;4.65;;;;;;;8.96;95.00;99412.78;4096685;85;21021;-82
2021/09/28 03:41:12;;;;;;;8.48;4.03;;;;;;;8.93;95.19;99412.13;4177208;84;21405;-82
2021/09/28 03:47:14;;;;;;;9.73;4.70;;;;;;;9.11;96.21;99416.85;4163090;85;21573;-82
2021/09/28 03:53:16;;;;;;;11.38;4.30;;;;;;;9.03;95.22;99420.59;4138054;85;21155;-81
2021/09/28 03:59:17;;;;;;;6.35;3.58;;;;;;;9.01;96.00;99417.41;4152806;83;21124;-82
2021/09/28 04:05:18;;;;;;;8.75;4.62;;;;;;;8.96;95.46;99424.50;4154204;84;21089;-81
2021/09/28 04:11:20;;;;;;;7.72;5.03;;;;;;;8.90;95.42;99425.11;4161559;85;21613;-81
2021/09/28 04:17:21;;;;;;;17.60;4.72;;;;;;;8.83;95.58;99429.05;4143514;84;22374;-81
2021/09/28 04:23:24;;;;;;;12.78;6.83;;;;;;;8.83;96.08;99434.52;4141031;85;21553;-82
2021/09/28 04:29:25;;;;;;;8.05;5.20;;;;;;;9.05;97.44;99449.68;4160853;84;21081;-82
2021/09/28 04:35:28;;;;;;;12.05;7.78;;;;;;;9.14;96.43;99442.12;4169761;84;21074;-82
2021/09/28 04:41:29;;;;;;;12.82;7.85;;;;;;;9.15;96.92;99438.23;4166852;84;21128;-81
2021/09/28 04:47:31;;;;;;;11.53;7.75;;;;;;;9.22;97.34;99439.75;4138418;84;21542;-81
2021/09/28 04:53:33;;;;;;;18.52;8.75;;;;;;;9.40;97.98;99451.09;4150356;84;21133;-81
2021/09/28 04:59:34;;;;;;;16.65;10.63;;;;;;;9.50;97.20;99455.45;4150160;85;21074;-82
2021/09/28 05:05:37;;;;;;;22.77;14.47;;;;;;;9.50;97.52;99460.11;4153672;84;21062;-82
2021/09/28 05:11:38;;;;;;;23.45;14.18;;;;;;;9.51;97.37;99452.92;4154410;85;21069;-82
2021/09/28 05:17:39;;;;;;;29.00;14.78;;;;;;;9.45;97.27;99462.55;4156924;84;21541;-82
2021/09/28 05:23:45;;;;;;;25.10;14.68;;;;;;;9.42;97.55;99467.92;4151473;85;21014;-82
2021/09/28 05:29:44;;;;;;;23.05;13.83;;;;;;;9.45;97.72;99473.48;4154616;85;21088;-81
2021/09/28 05:35:45;;;;;;;23.57;13.85;;;;;;;9.51;97.64;99478.89;4148739;84;21104;-81
2021/09/28 05:41:47;;;;;;;23.18;13.20;;;;;;;9.50;97.39;99477.88;4156664;84;21137;-82
2021/09/28 05:47:50;;;;;;;30.70;14.93;;;;;;;9.49;97.65;99483.91;4160469;85;21088;-81
2021/09/28 05:53:52;;;;;;;21.15;14.23;;;;;;;9.54;97.74;99487.73;4030973;87;21115;-82
2021/09/28 05:59:53;;;;;;;26.75;15.45;;;;;;;9.61;97.88;99493.14;4150921;85;21088;-82
2021/09/28 06:05:54;;;;;;;25.50;15.45;;;;;;;9.61;97.79;99497.24;4166952;84;21045;-81
2021/09/28 06:11:58;;;;;;;28.75;14.95;;;;;;;9.69;97.97;99507.19;4158195;85;21580;-83
2021/09/28 06:18:00;;;;;;;30.32;16.32;;;;;;;9.56;98.06;99516.08;4144916;84;21108;-82
2021/09/28 06:24:01;;;;;;;32.25;19.23;;;;;;;9.54;98.25;99527.93;4150927;85;20982;-82
2021/09/28 06:30:05;;;;;;;29.25;18.20;;;;;;;9.67;98.16;99520.41;4161771;85;21109;-82
2021/09/28 06:36:06;;;;;;;34.98;18.00;;;;;;;9.71;98.00;99529.51;4147708;84;21085;-81
2021/09/28 06:42:09;;;;;;;28.80;16.23;;;;;;;9.77;97.99;99536.28;4137914;85;21526;-82
2021/09/28 06:48:11;;;;;;;22.55;13.98;;;;;;;9.80;98.04;99538.30;4152935;84;21072;-82
2021/09/28 06:54:12;;;;;;;29.67;14.40;;;;;;;9.89;98.16;99542.42;4150265;85;21089;-82
2021/09/28 07:00:15;;;;;;;26.45;13.08;;;;;;;9.99;97.94;99549.28;4144599;84;21072;-82
2021/09/28 07:06:17;;;;;;;21.60;12.50;;;;;;;10.09;97.94;99548.73;4144949;84;21606;-82
2021/09/28 07:12:18;;;;;;;18.73;11.65;;;;;;;10.15;97.93;99552.80;4150544;84;21084;-84
2021/09/28 07:18:21;;;;;;;22.52;12.20;;;;;;;10.20;97.77;99557.96;4148006;84;21164;-82
2021/09/28 07:24:22;;;;;;;20.25;11.85;;;;;;;10.20;97.54;99561.50;4160533;84;21077;-83
2021/09/28 07:30:25;;;;;;;18.48;11.50;;;;;;;10.27;97.53;99565.77;4164617;84;21718;-82
2021/09/28 07:36:28;;;;;;;17.25;10.68;;;;;;;10.34;97.49;99575.48;4135630;85;21088;-83
2021/09/28 07:42:33;;;;;;;24.60;11.97;;;;;;;10.36;97.49;99581.97;4147955;84;21072;-82
2021/09/28 07:48:35;;;;;;;19.15;12.50;;;;;;;10.45;97.47;99591.55;4157086;84;21045;-82
2021/09/28 07:54:39;;;;;;;20.23;12.03;;;;;;;10.58;97.43;99585.36;4154638;85;21077;-82
2021/09/28 08:00:43;;;;;;;22.62;14.07;;;;;;;10.66;97.33;99590.63;4142139;85;21078;-83
2021/09/28 08:06:45;;;;;;;21.68;14.15;;;;;;;10.74;97.16;99600.55;4147193;85;21089;-82
2021/09/28 08:12:47;;;;;;;28.12;15.55;;;;;;;10.72;96.86;99599.34;4140053;85;21053;-82
2021/09/28 08:18:51;;;;;;;25.48;14.53;;;;;;;10.77;96.86;99605.90;4146860;85;21134;-82
2021/09/28 08:24:56;;;;;;;24.18;15.28;;;;;;;10.78;97.16;99600.05;4151002;85;21041;-82
2021/09/28 08:30:58;;;;;;;30.60;18.17;;;;;;;10.95;97.00;99601.54;4141105;85;21084;-82
2021/09/28 08:37:00;;;;;;;26.50;16.67;;;;;;;11.09;97.18;99601.80;4144391;83;21468;-82
2021/09/28 08:43:05;;;;;;;22.50;15.97;;;;;;;11.52;96.58;99605.53;4150092;84;21097;-83
2021/09/28 08:49:07;;;;;;;24.63;15.80;;;;;;;11.84;96.21;99604.11;4147286;85;22203;-82
2021/09/28 08:55:09;;;;;;;21.87;13.65;;;;;;;12.05;96.21;99615.42;4150851;83;21069;-83
2021/09/28 09:01:13;;;;;;;23.65;16.17;;;;;;;12.29;96.21;99608.11;4151203;84;21576;-82
2021/09/28 09:07:25;;;;;;;22.67;14.47;;;;;;;12.89;93.92;99613.60;4140370;85;21085;-83
2021/09/28 09:13:54;;;;;;;22.60;13.90;;;;;;;12.89;93.96;99627.34;4147766;84;21034;-83
2021/09/28 09:20:05;;;;;;;22.85;13.20;;;;;;;12.65;93.45;99627.24;4160386;84;21600;-83
2021/09/28 09:26:18;;;;;;;24.92;13.93;;;;;;;12.85;93.82;99622.37;4151299;85;21048;-84
2021/09/28 09:32:21;;;;;;;24.45;13.05;;;;;;;13.41;87.61;99627.13;4150193;85;21066;-82
2021/09/28 09:38:26;;;;;;;12.90;9.80;;;;;;;13.90;90.00;99624.83;4162697;83;21112;-83
2021/09/28 09:44:29;;;;;;;14.30;10.53;;;;;;;14.82;86.16;99611.02;4133747;84;21605;-84
2021/09/28 09:50:32;;;;;;;15.25;10.38;;;;;;;15.18;85.97;99618.22;4134196;83;21037;-84
2021/09/28 09:56:52;;;;;;;14.45;9.15;;;;;;;15.69;85.73;99618.13;4140703;85;21066;-82
2021/09/28 10:02:53;;;;;;;12.03;9.43;;;;;;;16.46;86.30;99618.67;4124756;84;21062;-83
2021/09/28 10:08:56;;;;;;;13.85;9.33;;;;;;;16.86;83.07;99623.68;4141118;84;21522;-84
2021/09/28 10:15:17;;;;;;;12.98;8.00;;;;;;;17.08;80.08;99627.13;4145433;84;21049;-84
2021/09/28 10:21:46;;;;;;;11.73;7.47;;;;;;;17.64;78.43;99623.25;4135049;85;21572;-83
2021/09/28 10:28:12;;;;;;;8.85;6.65;;;;;;;17.94;76.34;99629.74;4143991;85;21585;-84
2021/09/28 10:34:19;;;;;;;11.07;7.27;;;;;;;17.68;77.02;99629.56;4142025;84;21588;-85
2021/09/28 10:40:47;;;;;;;10.00;6.53;;;;;;;17.94;69.43;99633.09;4144829;84;21581;-84
2021/09/28 10:46:50;;;;;;;7.87;5.50;;;;;;;17.82;69.32;99626.06;4155932;85;21750;-85
2021/09/28 10:53:08;;;;;;;10.80;5.80;;;;;;;18.23;73.70;99623.33;4142916;84;21153;-84
2021/09/28 10:59:11;;;;;;;10.65;5.17;;;;;;;18.33;73.00;99621.86;4157405;84;21120;-84
2021/09/28 11:05:38;;;;;;;7.75;5.03;;;;;;;18.52;72.36;99621.29;4151966;85;21053;-84
2021/09/28 11:11:41;;;;;;;7.25;5.40;;;;;;;18.62;71.72;99620.98;4155732;85;21538;-83
2021/09/28 11:17:45;;;;;;;10.38;5.45;;;;;;;18.77;70.30;99623.77;4145017;85;21548;-84
2021/09/28 11:23:51;;;;;;;10.18;5.95;;;;;;;18.78;67.85;99624.56;4149529;85;21065;-85
2021/09/28 11:29:54;;;;;;;10.07;6.50;;;;;;;18.60;71.16;99621.38;4157513;84;21597;-85
2021/09/28 11:36:12;;;;;;;14.00;6.90;;;;;;;18.28;68.29;99614.57;4148319;84;21575;-84
2021/09/28 11:42:13;;;;;;;10.05;6.22;;;;;;;17.74;69.06;99610.73;4123377;83;21690;-86
2021/09/28 11:48:14;;;;;;;8.83;6.53;;;;;;;17.68;69.62;99609.56;4141157;84;21045;-84
2021/09/28 11:54:18;;;;;;;10.32;6.12;;;;;;;17.52;68.99;99605.74;4131311;85;21114;-85
2021/09/28 12:00:20;;;;;;;10.15;7.97;;;;;;;17.25;69.34;99613.80;4128995;84;21149;-84
2021/09/28 12:06:27;;;;;;;11.40;7.72;;;;;;;17.20;69.04;99609.48;4109257;85;21089;-85
2021/09/28 12:12:37;;;;;;;10.20;6.73;;;;;;;16.85;68.80;99613.03;4127761;85;21112;-85
2021/09/28 12:18:39;;;;;;;15.70;7.85;;;;;;;16.62;68.72;99617.64;4129665;85;21070;-84
2021/09/28 12:24:54;;;;;;;9.98;7.12;;;;;;;16.29;69.75;99609.80;4130106;85;21108;-84
2021/09/28 12:31:02;;;;;;;7.78;6.80;;;;;;;16.09;70.03;99617.52;4134479;84;21001;-84
2021/09/28 12:37:08;;;;;;;11.33;6.33;;;;;;;15.98;70.26;99616.75;4133543;84;21581;-85
2021/09/28 12:43:26;;;;;;;12.85;6.95;;;;;;;15.89;70.77;99624.06;4132790;85;21076;-84
2021/09/28 12:49:41;;;;;;;10.68;8.08;;;;;;;15.85;71.44;99621.11;4129188;84;22276;-84
2021/09/28 12:55:46;;;;;;;13.08;7.87;;;;;;;15.98;71.28;99620.89;4131600;84;21058;-84
2021/09/28 13:01:49;;;;;;;13.72;8.33;;;;;;;15.99;71.79;99623.87;4128148;84;21078;-84
2021/09/28 13:07:52;;;;;;;13.62;9.45;;;;;;;15.99;72.37;99619.72;4129126;84;21013;-84
2021/09/28 13:14:00;;;;;;;11.35;7.78;;;;;;;15.89;72.32;99632.34;4125521;85;21732;-84
2021/09/28 13:20:05;;;;;;;11.48;8.20;;;;;;;15.95;73.18;99634.91;4130255;84;21098;-84
2021/09/28 13:26:07;;;;;;;12.53;8.15;;;;;;;16.05;73.28;99629.98;4125561;83;21088;-84
2021/09/28 13:32:11;;;;;;;12.85;8.48;;;;;;;16.08;73.22;99625.05;4127447;85;21054;-84
2021/09/28 13:38:12;;;;;;;14.05;9.50;;;;;;;16.04;73.64;99624.24;4124572;85;21096;-84
2021/09/28 13:44:14;;;;;;;13.25;8.35;;;;;;;15.87;73.42;99630.56;4146332;85;21092;-84
2021/09/28 13:50:19;;;;;;;15.90;9.58;;;;;;;15.79;73.96;99617.14;4161726;83;21072;-85
2021/09/28 13:56:23;;;;;;;16.12;10.13;;;;;;;15.85;73.94;99612.22;4143943;85;21558;-85
2021/09/28 14:02:26;;;;;;;16.87;11.68;;;;;;;15.84;74.09;99609.27;4156993;85;21090;-83
2021/09/28 14:08:29;;;;;;;20.75;12.00;;;;;;;15.69;74.53;99608.47;4148779;84;21076;-84
2021/09/28 14:14:33;;;;;;;17.52;11.40;;;;;;;15.74;74.89;99612.04;4154199;84;21058;-83
2021/09/28 14:20:34;;;;;;;16.90;11.28;;;;;;;15.69;75.13;99609.85;4165386;83;21077;-84
2021/09/28 14:26:43;;;;;;;15.50;10.98;;;;;;;15.53;75.20;99616.95;4157420;85;21106;-84
2021/09/28 14:32:44;;;;;;;22.20;12.63;;;;;;;15.54;75.40;99618.52;4146400;85;21081;-84
2021/09/28 14:38:46;;;;;;;17.32;11.75;;;;;;;15.34;75.57;99622.22;4154027;84;21081;-84
2021/09/28 14:44:51;;;;;;;17.77;11.83;;;;;;;15.31;75.75;99628.52;4139103;85;21033;-84
2021/09/28 14:50:52;;;;;;;16.48;11.35;;;;;;;15.29;76.21;99630.88;4125025;84;21636;-84
2021/09/28 14:56:53;;;;;;;16.97;10.55;;;;;;;15.43;76.38;99635.65;4144489;85;21062;-84
2021/09/28 15:02:58;;;;;;;18.12;10.80;;;;;;;15.52;76.52;99633.29;4134777;84;21078;-83
2021/09/28 15:08:59;;;;;;;14.05;8.68;;;;;;;15.55;76.89;99635.30;4139893;84;21025;-84
2021/09/28 15:15:03;;;;;;;17.60;10.30;;;;;;;15.61;76.52;99646.91;4140755;84;21061;-84
2021/09/28 15:21:05;;;;;;;15.70;8.58;;;;;;;15.72;76.93;99646.94;4138466;85;21042;-83
2021/09/28 15:27:09;;;;;;;14.35;8.30;;;;;;;15.75;76.33;99653.05;4136521;85;21108;-84
2021/09/28 15:33:12;;;;;;;12.07;7.10;;;;;;;15.66;76.27;99657.56;4129867;84;21009;-84
2021/09/28 15:39:14;;;;;;;11.73;7.12;;;;;;;15.57;76.29;99664.64;4130542;83;21098;-84
2021/09/28 15:45:18;;;;;;;12.03;7.70;;;;;;;15.46;76.31;99662.45;4143906;84;21129;-83
2021/09/28 15:51:21;;;;;;;12.95;8.13;;;;;;;15.31;76.30;99655.30;4142709;85;21053;-84
2021/09/28 15:57:28;;;;;;;13.90;8.10;;;;;;;15.14;76.33;99665.09;4155231;85;21072;-85
2021/09/28 16:03:30;;;;;;;14.93;8.08;;;;;;;15.03;76.50;99665.67;4153952;85;21120;-84
2021/09/28 16:09:33;;;;;;;12.18;9.00;;;;;;;14.89;76.62;99675.23;4155729;83;21028;-84
2021/09/28 16:15:35;;;;;;;13.03;7.95;;;;;;;14.80;76.88;99677.55;4140138;85;21156;-84
2021/09/28 16:21:37;;;;;;;12.43;8.28;;;;;;;14.64;76.71;99678.47;4147288;84;21132;-85
2021/09/28 16:27:46;;;;;;;16.75;8.70;;;;;;;14.47;76.72;99672.25;4155357;85;21549;-84
2021/09/28 16:33:49;;;;;;;13.93;9.38;;;;;;;14.28;76.70;99679.42;4156736;84;21140;-83
2021/09/28 16:39:52;;;;;;;19.27;9.85;;;;;;;14.14;76.89;99694.43;4140891;84;21125;-84
2021/09/28 16:45:54;;;;;;;17.77;11.83;;;;;;;14.00;76.91;99692.34;4160017;85;21078;-83
2021/09/28 16:52:01;;;;;;;21.77;12.40;;;;;;;13.80;77.37;99699.24;4142979;84;21578;-84
2021/09/28 16:58:04;;;;;;;18.37;12.30;;;;;;;13.62;77.50;99694.74;4155127;84;21080;-84
2021/09/28 17:04:09;;;;;;;18.10;12.85;;;;;;;13.43;77.79;99697.68;4153224;84;21054;-84
2021/09/28 17:10:13;;;;;;;22.77;14.00;;;;;;;13.25;78.03;99698.08;4149157;84;21088;-83
2021/09/28 17:16:31;;;;;;;21.82;14.63;;;;;;;13.05;78.45;99706.27;4147335;85;21061;-84
2021/09/28 17:22:33;;;;;;;21.57;14.70;;;;;;;12.89;79.29;99700.16;4151905;85;21114;-83
2021/09/28 17:28:36;;;;;;;17.12;12.30;;;;;;;12.76;79.31;99708.41;4139228;85;21072;-84
2021/09/28 17:34:38;;;;;;;20.92;13.10;;;;;;;12.74;80.16;99718.40;4145072;84;21109;-83
2021/09/28 17:40:42;;;;;;;22.77;15.08;;;;;;;12.71;80.37;99714.22;4140111;84;21137;-82
2021/09/28 17:46:45;;;;;;;22.85;15.93;;;;;;;12.48;80.64;99711.56;4134626;84;21030;-83
2021/09/28 17:52:48;;;;;;;19.95;14.25;;;;;;;12.29;80.84;99708.91;4134783;85;21117;-83
2021/09/28 17:58:49;;;;;;;25.75;16.80;;;;;;;12.12;81.22;99719.80;4149519;83;21049;-83
2021/09/28 18:04:52;;;;;;;24.72;16.70;;;;;;;11.84;81.41;99715.81;4168151;85;21053;-84
2021/09/28 18:10:56;;;;;;;33.78;15.40;;;;;;;11.71;81.84;99715.77;4139662;85;21039;-83
2021/09/28 18:16:59;;;;;;;22.27;14.87;;;;;;;11.63;82.23;99714.05;4171323;83;21060;-83
2021/09/28 18:23:00;;;;;;;23.00;15.70;;;;;;;11.57;82.54;99717.66;4156404;84;21098;-83
2021/09/28 18:29:06;;;;;;;22.07;15.40;;;;;;;11.48;82.85;99725.89;4153278;84;21006;-83
2021/09/28 18:35:14;;;;;;;22.47;15.47;;;;;;;11.31;82.63;99732.60;4159545;83;21078;-83
2021/09/28 18:41:50;;;;;;;;;;;;;;;;;;;;;
2021/09/28 18:47:40;;;;;;;26.02;15.25;;;;;;;10.97;83.43;99733.47;4125062;85;21082;-84
2021/09/28 18:53:46;;;;;;;36.35;23.18;;;;;;;10.74;83.41;99736.09;4123064;85;21817;-83
2021/09/28 18:59:52;;;;;;;40.43;22.75;;;;;;;10.63;83.73;99738.41;4147968;84;21124;-83
2021/09/28 19:05:57;;;;;;;41.18;24.37;;;;;;;10.38;84.01;99735.08;4124135;82;21560;-83
2021/09/28 19:11:59;;;;;;;35.58;23.67;;;;;;;10.30;84.69;99739.38;4110234;85;21993;-83
2021/09/28 19:18:01;;;;;;;40.50;25.00;;;;;;;10.28;84.84;99743.04;4132283;85;21062;-83
2021/09/28 19:24:03;;;;;;;35.20;24.82;;;;;;;10.19;85.07;99739.14;4135303;85;21085;-83
2021/09/28 19:30:07;;;;;;;35.78;23.30;;;;;;;10.11;85.27;99731.09;4129532;85;21057;-83
2021/09/28 19:36:08;;;;;;;32.33;22.52;;;;;;;9.99;85.41;99727.06;4149287;84;21072;-83
2021/09/28 19:42:12;;;;;;;33.42;21.33;;;;;;;9.89;85.69;99737.95;4129679;85;21101;-83
2021/09/28 19:48:14;;;;;;;27.65;19.75;;;;;;;9.91;86.20;99736.23;3976525;88;21058;-83
2021/09/28 19:54:29;;;;;;;32.23;21.15;;;;;;;10.04;86.95;99739.89;4057310;86;21605;-83
2021/09/28 20:00:59;;;;;;;37.03;21.25;;;;;;;9.95;86.65;99741.20;4039392;86;21119;-83
2021/09/28 20:38:17;;;;;;;35.95;22.13;;;;;;;9.45;87.13;99738.56;4120789;84;21074;-82
2021/09/28 20:44:18;;;;;;;30.85;21.85;;;;;;;9.33;87.38;99738.59;4145169;84;21074;-82
2021/09/28 20:50:20;;;;;;;34.78;22.42;;;;;;;9.22;87.49;99731.27;4156741;85;21070;-82
2021/09/28 20:56:23;;;;;;;30.35;21.02;;;;;;;9.13;87.46;99716.97;4158017;85;21090;-82
2021/09/28 21:02:26;;;;;;;24.60;18.02;;;;;;;9.05;87.62;99725.52;4146926;84;21084;-83
2021/09/28 21:08:28;;;;;;;31.33;20.57;;;;;;;8.97;87.81;99710.66;4170355;84;21688;-82
2021/09/28 21:14:30;;;;;;;29.15;18.05;;;;;;;8.98;88.43;99714.96;4124722;85;21046;-82
2021/09/28 21:20:33;;;;;;;25.08;18.25;;;;;;;8.99;88.48;99709.74;4147719;83;21048;-82
2021/09/28 21:26:34;;;;;;;27.25;18.75;;;;;;;9.00;88.92;99708.03;4148056;85;21081;-82
2021/09/28 21:32:48;;;;;;;21.45;13.93;;;;;;;8.97;88.85;99705.19;4146553;85;21119;-82
2021/09/28 21:38:42;;;;;;;22.77;16.00;;;;;;;8.99;89.54;99712.47;4159991;85;21381;-82
2021/09/28 21:44:45;;;;;;;22.58;15.55;;;;;;;9.05;89.61;99714.59;4170209;84;21089;-82
2021/09/28 21:50:49;;;;;;;26.70;16.32;;;;;;;9.05;89.50;99709.72;4148633;84;21080;-81
2021/09/28 21:56:51;;;;;;;30.37;17.45;;;;;;;8.90;88.75;99713.97;4146441;84;21441;-82
2021/09/28 22:02:53;;;;;;;26.90;17.27;;;;;;;8.57;89.08;99710.64;4150728;84;21050;-82
2021/09/28 22:08:54;;;;;;;24.50;17.07;;;;;;;8.56;89.14;99704.16;4143490;85;21097;-82
2021/09/28 22:14:56;;;;;;;26.17;16.80;;;;;;;8.55;89.68;99701.22;4173127;84;22222;-82
2021/09/28 22:20:57;;;;;;;27.05;17.55;;;;;;;8.53;90.54;99704.30;4160765;85;21700;-82
2021/09/28 22:26:59;;;;;;;26.97;17.55;;;;;;;8.57;90.48;99701.09;4147086;85;21577;-82
2021/09/28 22:33:03;;;;;;;26.68;18.10;;;;;;;8.62;90.42;99697.32;4158572;84;21081;-82
2021/09/28 22:39:06;;;;;;;23.70;17.37;;;;;;;8.65;91.05;99697.99;4139377;84;21094;-82
2021/09/28 22:45:09;;;;;;;33.05;17.90;;;;;;;8.65;90.96;99694.70;4161084;84;21100;-81
2021/09/28 22:51:11;;;;;;;23.02;16.02;;;;;;;8.67;91.42;99692.43;4152550;85;21041;-82
2021/09/28 22:57:15;;;;;;;29.25;15.90;;;;;;;8.61;91.15;99688.36;4156871;85;21062;-82
2021/09/28 23:03:17;;;;;;;21.93;15.45;;;;;;;8.56;91.30;99680.41;4141550;84;21989;-82
2021/09/28 23:09:20;;;;;;;24.47;16.10;;;;;;;8.50;91.50;99680.42;4164693;84;21033;-81
2021/09/28 23:15:22;;;;;;;21.95;14.50;;;;;;;8.49;92.15;99682.14;4158044;84;21088;-81
2021/09/28 23:21:28;;;;;;;20.52;14.50;;;;;;;8.53;92.16;99680.30;4146891;84;21127;-82
2021/09/28 23:27:29;;;;;;;22.60;15.40;;;;;;;8.51;92.23;99678.47;4155926;83;21096;-82
2021/09/28 23:33:31;;;;;;;21.48;14.15;;;;;;;8.50;92.42;99679.06;4142788;84;21062;-82
2021/09/28 23:39:32;;;;;;;23.75;15.23;;;;;;;8.53;92.44;99671.55;4142007;85;21050;-82
2021/09/28 23:45:39;;;;;;;27.62;15.30;;;;;;;8.47;92.67;99672.13;4109561;85;21041;-81
2021/09/28 23:51:40;;;;;;;27.00;16.12;;;;;;;8.46;92.52;99669.15;4089045;85;21418;-82
2021/09/28 23:57:44;;;;;;;22.73;14.98;;;;;;;8.34;92.59;99665.09;4085482;85;21073;-81
